Time;durP1;ratioP1;P1;durP2;ratioP2;P2;SDS_P1;SDS_P2;PMS_P1;PMS_P2;Temp;Humidity;BMP_temperature;BMP_pressure;BME280_temperature;BME280_humidity;BME280_pressure;Samples;Min_cycle;Max_cycle;Signal;HPM_P1;HPM_P2
2021/10/21 00:01:57;;;;;;;18.25;3.37;;;;;;;17.85;43.55;98333.72;4426235;32;20025;-70
2021/10/21 00:04:24;;;;;;;8.27;2.95;;;;;;;17.66;44.02;98323.75;4440691;32;20088;-70
2021/10/21 00:06:50;;;;;;;11.00;3.17;;;;;;;17.86;43.47;98323.87;4441954;32;20131;-70
2021/10/21 00:09:16;;;;;;;11.57;2.60;;;;;;;17.72;43.45;98325.19;4441178;32;20091;-70
2021/10/21 00:11:42;;;;;;;17.48;3.55;;;;;;;17.71;43.79;98329.31;4441107;32;20362;-70
2021/10/21 00:14:08;;;;;;;7.80;2.83;;;;;;;17.99;43.35;98328.03;4444202;32;20041;-70
2021/10/21 00:16:34;;;;;;;6.55;2.50;;;;;;;17.80;43.54;98326.06;4445373;32;20386;-70
2021/10/21 00:19:00;;;;;;;10.27;2.80;;;;;;;17.88;43.55;98321.25;4445381;32;20025;-70
2021/10/21 00:21:25;;;;;;;8.32;2.55;;;;;;;17.68;43.63;98323.97;4446263;32;20409;-70
2021/10/21 00:23:51;;;;;;;12.07;3.00;;;;;;;17.81;43.46;98330.44;4444047;32;20026;-70
2021/10/21 00:26:17;;;;;;;8.73;2.37;;;;;;;17.49;43.94;98334.66;4441452;32;20088;-70
2021/10/21 00:28:43;;;;;;;10.90;2.60;;;;;;;17.50;43.92;98339.03;4444145;32;20043;-70
2021/10/21 00:31:09;;;;;;;8.10;2.33;;;;;;;17.56;43.35;98340.47;4441778;32;20666;-70
2021/10/21 00:33:35;;;;;;;9.23;2.53;;;;;;;17.46;43.48;98330.06;4444291;32;20073;-70
2021/10/21 00:36:00;;;;;;;12.37;2.40;;;;;;;17.73;42.93;98329.56;4444250;32;20084;-70
2021/10/21 00:38:26;;;;;;;6.68;2.00;;;;;;;17.69;42.79;98337.66;4444353;32;20037;-70
2021/10/21 00:40:52;;;;;;;9.48;1.50;;;;;;;17.33;43.02;98332.81;4446357;32;20448;-70
2021/10/21 00:43:18;;;;;;;5.87;1.60;;;;;;;17.46;42.54;98332.91;4443341;32;20077;-70
2021/10/21 00:45:45;;;;;;;6.70;1.10;;;;;;;17.46;42.45;98342.19;4441411;32;20077;-70
2021/10/21 00:48:11;;;;;;;4.05;1.00;;;;;;;17.46;41.67;98327.97;4445220;32;20038;-70
2021/10/21 00:50:37;;;;;;;7.22;1.27;;;;;;;17.28;41.73;98336.53;4444951;32;20479;-70
2021/10/21 00:53:03;;;;;;;4.95;1.33;;;;;;;17.77;41.11;98341.38;4437959;32;20037;-70
2021/10/21 00:55:32;;;;;;;12.95;1.20;;;;;;;17.46;41.07;98342.19;4444238;32;20432;-70
2021/10/21 00:58:02;;;;;;;6.55;0.90;;;;;;;17.83;40.43;98342.03;4445319;32;20041;-70
2021/10/21 01:00:28;;;;;;;7.90;1.65;;;;;;;17.94;40.11;98354.53;4445112;32;20025;-70
2021/10/21 01:02:53;;;;;;;9.02;1.75;;;;;;;17.82;40.43;98354.72;4444263;32;20041;-70
2021/10/21 01:05:19;;;;;;;9.88;1.37;;;;;;;17.53;40.92;98343.62;4443791;32;20071;-70
2021/10/21 01:07:45;;;;;;;6.60;1.10;;;;;;;18.05;40.26;98354.31;4442530;32;20083;-70
2021/10/21 01:10:11;;;;;;;3.12;1.02;;;;;;;17.88;40.38;98346.84;4442853;32;20037;-70
2021/10/21 01:12:37;;;;;;;11.45;1.30;;;;;;;17.35;41.14;98353.72;4443272;32;20103;-70
2021/10/21 01:15:26;;;;;;;13.60;1.45;;;;;;;17.45;41.55;98349.19;4441416;32;20048;-70
2021/10/21 01:17:53;;;;;;;7.60;1.40;;;;;;;18.32;39.81;98345.22;4442932;32;20764;-70
2021/10/21 01:20:21;;;;;;;9.93;1.35;;;;;;;17.68;41.17;98341.78;4446679;32;20081;-70
2021/10/21 01:22:47;;;;;;;8.93;1.90;;;;;;;18.01;40.82;98356.72;4443840;32;20420;-70
2021/10/21 01:25:15;;;;;;;7.57;1.70;;;;;;;17.82;41.00;98356.81;4442243;32;20081;-70
2021/10/21 01:27:42;;;;;;;14.05;1.12;;;;;;;17.60;41.61;98357.97;4442881;32;20411;-69
2021/10/21 01:30:15;;;;;;;8.63;1.25;;;;;;;17.64;41.59;98355.56;4444820;32;20112;-69
2021/10/21 01:32:41;;;;;;;9.75;1.42;;;;;;;17.83;41.16;98359.09;4440508;32;20102;-69
2021/10/21 01:35:07;;;;;;;6.35;1.20;;;;;;;17.60;41.51;98342.97;4444799;32;20025;-69
2021/10/21 01:37:33;;;;;;;10.18;1.23;;;;;;;17.88;41.14;98344.03;4443484;32;20073;-69
2021/10/21 01:39:59;;;;;;;8.93;1.30;;;;;;;17.99;41.03;98330.88;4443312;32;20459;-69
2021/10/21 01:42:25;;;;;;;14.95;1.40;;;;;;;17.92;41.27;98349.38;4443236;32;20092;-69
2021/10/21 01:44:51;;;;;;;7.95;1.75;;;;;;;17.76;41.45;98348.38;4442842;32;20129;-71
2021/10/21 01:47:17;;;;;;;9.10;1.30;;;;;;;17.51;42.17;98349.09;4443207;32;20088;-69
2021/10/21 01:49:42;;;;;;;8.20;1.20;;;;;;;17.69;41.93;98351.88;4441822;32;20091;-69
2021/10/21 01:52:09;;;;;;;8.10;1.48;;;;;;;17.52;42.25;98362.00;4443470;32;20641;-69
2021/10/21 01:54:34;;;;;;;9.18;1.00;;;;;;;17.26;42.94;98356.19;4441276;32;20092;-69
2021/10/21 01:57:00;;;;;;;10.25;1.30;;;;;;;17.40;42.72;98344.31;4443903;32;20063;-69
2021/10/21 01:59:26;;;;;;;11.90;1.60;;;;;;;17.54;42.49;98356.53;4444408;32;20025;-69
2021/10/21 02:01:51;;;;;;;6.72;1.40;;;;;;;17.60;42.37;98363.66;4444569;32;20370;-68
2021/10/21 02:04:17;;;;;;;5.20;1.10;;;;;;;17.47;42.66;98366.47;4442675;32;20362;-68
2021/10/21 02:06:43;;;;;;;8.35;1.17;;;;;;;17.34;43.07;98363.56;4441718;32;20464;-70
2021/10/21 02:09:08;;;;;;;5.43;1.25;;;;;;;17.47;43.12;98371.41;4443651;32;20084;-70
2021/10/21 02:11:34;;;;;;;6.15;1.10;;;;;;;17.46;43.13;98367.03;4443896;32;20557;-70
2021/10/21 02:14:00;;;;;;;9.32;1.02;;;;;;;17.28;43.68;98379.94;4444001;32;20080;-70
2021/10/21 02:16:25;;;;;;;6.85;0.90;;;;;;;17.15;44.06;98374.19;4442176;32;20390;-70
2021/10/21 02:18:53;;;;;;;7.05;0.95;;;;;;;17.36;43.87;98380.06;4443648;32;20208;-70
2021/10/21 02:21:20;;;;;;;6.95;1.10;;;;;;;17.18;44.41;98384.47;4444422;32;20057;-70
2021/10/21 02:23:46;;;;;;;8.57;1.27;;;;;;;17.11;45.13;98387.97;4443567;32;20036;-70
2021/10/21 02:26:12;;;;;;;7.32;0.95;;;;;;;17.09;45.40;98372.75;4442758;32;20049;-70
2021/10/21 02:28:38;;;;;;;4.22;1.00;;;;;;;17.25;45.01;98366.78;4444335;32;20075;-70
2021/10/21 02:31:03;;;;;;;7.93;0.82;;;;;;;16.85;46.10;98372.84;4440855;32;20084;-70
2021/10/21 02:33:29;;;;;;;9.15;1.15;;;;;;;16.66;46.99;98383.47;4443716;32;20020;-70
2021/10/21 02:35:55;;;;;;;4.22;1.40;;;;;;;16.51;47.72;98374.62;4439446;32;20244;-70
2021/10/21 02:38:21;;;;;;;5.50;1.85;;;;;;;16.33;48.37;98386.69;4441531;32;20103;-70
2021/10/21 02:40:46;;;;;;;6.18;1.80;;;;;;;16.48;48.10;98375.69;4444275;32;20033;-70
2021/10/21 02:43:13;;;;;;;5.62;1.70;;;;;;;16.63;47.88;98373.16;4442137;32;20044;-70
2021/10/21 02:45:41;;;;;;;3.22;1.80;;;;;;;16.61;48.07;98378.63;4440404;32;20041;-70
2021/10/21 02:48:07;;;;;;;4.55;2.72;;;;;;;16.85;48.18;98387.84;4443546;32;20103;-70
2021/10/21 02:50:33;;;;;;;7.20;3.90;;;;;;;16.75;48.75;98389.50;4442811;32;20080;-70
2021/10/21 02:52:59;;;;;;;7.35;4.25;;;;;;;16.97;48.36;98403.41;4441798;32;20041;-70
2021/10/21 02:55:24;;;;;;;6.10;3.67;;;;;;;17.30;47.78;98410.66;4441624;32;20089;-70
2021/10/21 02:57:50;;;;;;;2.72;1.90;;;;;;;17.29;47.93;98411.97;4441089;32;20318;-70
2021/10/21 03:00:16;;;;;;;2.92;1.27;;;;;;;17.08;48.48;98408.94;4440898;32;20403;-70
2021/10/21 03:02:42;;;;;;;4.43;1.40;;;;;;;17.35;47.81;98406.97;4445334;32;20036;-70
2021/10/21 03:05:08;;;;;;;3.05;0.40;;;;;;;17.29;48.13;98400.59;4442277;32;20461;-70
2021/10/21 03:07:34;;;;;;;6.45;0.62;;;;;;;17.14;47.72;98415.31;4440530;32;20072;-70
2021/10/21 03:10:00;;;;;;;3.22;0.55;;;;;;;17.15;47.10;98410.38;4442820;32;20037;-70
2021/10/21 03:12:26;;;;;;;4.57;0.62;;;;;;;17.20;46.97;98426.56;4442281;32;20075;-70
2021/10/21 03:14:52;;;;;;;7.47;0.98;;;;;;;17.15;47.04;98421.75;4442686;32;20079;-70
2021/10/21 03:17:18;;;;;;;8.68;0.90;;;;;;;16.82;47.60;98437.19;4444378;32;20096;-70
2021/10/21 03:19:44;;;;;;;5.53;0.75;;;;;;;16.72;48.07;98436.03;4442195;32;20116;-70
2021/10/21 03:22:10;;;;;;;7.47;0.57;;;;;;;17.01;47.19;98440.81;4442078;32;20044;-70
2021/10/21 03:24:35;;;;;;;2.97;0.60;;;;;;;17.33;46.87;98441.62;4442159;32;20077;-70
2021/10/21 03:27:01;;;;;;;4.72;0.55;;;;;;;16.94;48.22;98461.28;4443977;32;20140;-70
2021/10/21 03:29:27;;;;;;;1.95;0.40;;;;;;;17.05;48.18;98449.78;4442042;32;20420;-70
2021/10/21 03:31:53;;;;;;;2.05;0.30;;;;;;;16.72;48.92;98475.03;4442252;32;20088;-70
2021/10/21 03:34:19;;;;;;;4.93;0.40;;;;;;;17.23;47.65;98474.59;4441870;32;20078;-70
2021/10/21 03:36:45;;;;;;;3.53;0.32;;;;;;;17.21;47.40;98482.13;4442148;32;20095;-70
2021/10/21 03:39:10;;;;;;;1.77;0.20;;;;;;;16.93;48.08;98493.84;4443341;32;20038;-70
2021/10/21 03:41:36;;;;;;;2.67;0.50;;;;;;;17.13;47.47;98507.56;4441318;32;20503;-70
2021/10/21 03:44:02;;;;;;;4.47;0.55;;;;;;;16.71;48.16;98522.53;4445956;32;20057;-70
2021/10/21 03:46:27;;;;;;;5.00;0.43;;;;;;;16.99;47.41;98530.72;4445790;32;20103;-70
2021/10/21 03:48:53;;;;;;;2.08;0.37;;;;;;;16.69;48.26;98547.09;4447381;32;20046;-70
2021/10/21 03:51:19;;;;;;;4.93;0.47;;;;;;;16.92;47.59;98565.41;4443325;32;20084;-70
2021/10/21 03:53:44;;;;;;;4.47;0.37;;;;;;;16.41;48.34;98570.03;4443390;32;20060;-70
2021/10/21 03:56:10;;;;;;;3.40;0.20;;;;;;;16.42;48.40;98596.38;4444279;32;20034;-70
2021/10/21 03:58:36;;;;;;;3.25;0.40;;;;;;;16.27;47.87;98619.47;4442388;32;20142;-70
2021/10/21 04:01:03;;;;;;;2.28;0.28;;;;;;;16.71;46.40;98621.94;4444943;32;20428;-70
2021/10/21 04:03:29;;;;;;;1.25;0.10;;;;;;;16.13;47.16;98653.91;4443321;32;20088;-70
2021/10/21 04:05:54;;;;;;;0.37;0.10;;;;;;;15.35;47.78;98701.69;4447285;32;20107;-70
2021/10/21 04:08:21;;;;;;;1.75;0.15;;;;;;;15.64;47.05;98752.88;4444796;32;20576;-70
2021/10/21 04:10:48;;;;;;;0.03;0.00;;;;;;;15.00;48.68;98770.25;4446031;32;20036;-68
2021/10/21 04:13:14;;;;;;;0.55;0.10;;;;;;;14.01;50.31;98784.22;4445015;32;20064;-69
2021/10/21 04:15:40;;;;;;;2.33;0.20;;;;;;;14.62;49.40;98790.84;4444521;32;20438;-69
2021/10/21 04:18:06;;;;;;;0.10;0.10;;;;;;;14.42;49.77;98812.94;4446268;32;20025;-68
2021/10/21 04:20:32;;;;;;;0.90;0.10;;;;;;;14.32;50.03;98820.09;4447234;32;20127;-68
2021/10/21 04:22:58;;;;;;;0.40;0.10;;;;;;;13.98;50.78;98824.84;4444682;32;20061;-68
2021/10/21 04:25:23;;;;;;;0.98;0.15;;;;;;;14.07;50.71;98833.09;4443006;32;20098;-68
2021/10/21 04:27:49;;;;;;;0.70;0.10;;;;;;;13.95;50.74;98843.59;4444881;32;20090;-68
2021/10/21 04:30:15;;;;;;;0.13;0.03;;;;;;;14.27;50.42;98855.59;4442345;32;20097;-68
2021/10/21 04:32:41;;;;;;;0.10;0.10;;;;;;;13.41;51.13;98864.59;4444335;32;20037;-68
2021/10/21 04:35:08;;;;;;;0.50;0.20;;;;;;;13.71;50.92;98879.97;4445241;32;20661;-67
2021/10/21 04:37:35;;;;;;;0.43;0.13;;;;;;;13.96;49.79;98889.59;4443733;32;20060;-67
2021/10/21 04:40:01;;;;;;;1.95;0.30;;;;;;;14.20;49.42;98900.53;4445592;32;20056;-68
2021/10/21 04:42:28;;;;;;;0.62;0.10;;;;;;;13.96;49.74;98915.03;4446037;32;20059;-68
2021/10/21 04:44:54;;;;;;;1.00;0.20;;;;;;;14.00;50.26;98924.84;4444742;32;20085;-68
2021/10/21 04:47:19;;;;;;;0.20;0.13;;;;;;;14.40;49.57;98932.28;4446134;32;20490;-68
2021/10/21 04:49:46;;;;;;;0.80;0.10;;;;;;;13.95;50.17;98948.22;4443628;32;20421;-68
2021/10/21 04:52:12;;;;;;;0.98;0.13;;;;;;;13.77;49.17;98971.22;4446112;32;20071;-68
2021/10/21 04:54:38;;;;;;;1.55;0.45;;;;;;;13.99;49.32;98973.44;4443831;32;20430;-68
2021/10/21 04:57:05;;;;;;;0.73;0.17;;;;;;;13.66;49.95;98973.22;4442241;32;20056;-68
2021/10/21 04:59:30;;;;;;;0.52;0.15;;;;;;;14.07;48.79;98983.78;4445104;32;20037;-68
2021/10/21 05:01:56;;;;;;;3.95;0.45;;;;;;;13.97;49.03;98996.56;4442407;32;20076;-68
2021/10/21 05:04:22;;;;;;;0.50;0.13;;;;;;;14.07;48.51;99003.59;4443342;32;20061;-68
2021/10/21 05:06:48;;;;;;;0.98;0.20;;;;;;;13.84;48.75;99018.81;4443200;32;20090;-68
2021/10/21 05:09:13;;;;;;;1.23;0.20;;;;;;;13.66;49.08;99030.50;4445262;32;20584;-68
2021/10/21 05:11:39;;;;;;;1.42;0.28;;;;;;;13.85;48.36;99047.87;4447300;32;20073;-68
2021/10/21 05:14:04;;;;;;;2.05;0.30;;;;;;;13.76;49.48;99054.50;4443261;32;20503;-68
2021/10/21 05:16:30;;;;;;;6.18;0.80;;;;;;;14.15;48.89;99065.34;4444164;32;20046;-68
2021/10/21 05:18:56;;;;;;;1.45;0.20;;;;;;;14.13;48.86;99053.75;4444358;32;20088;-68
2021/10/21 05:21:21;;;;;;;4.28;0.73;;;;;;;14.24;48.49;99065.97;4442149;32;20192;-68
2021/10/21 05:23:47;;;;;;;3.05;0.28;;;;;;;14.35;48.13;99068.84;4443504;32;20100;-68
2021/10/21 05:26:12;;;;;;;3.22;0.60;;;;;;;14.20;48.59;99084.41;4441648;32;20041;-68
2021/10/21 05:28:38;;;;;;;3.70;0.40;;;;;;;14.11;48.77;99081.78;4441702;32;20086;-68
2021/10/21 05:31:04;;;;;;;4.40;0.55;;;;;;;14.09;47.94;99090.75;4445860;32;20423;-68
2021/10/21 05:33:35;;;;;;;6.03;0.60;;;;;;;13.82;48.12;99097.72;4445343;32;20034;-68
2021/10/21 05:36:04;;;;;;;2.25;0.37;;;;;;;13.87;48.36;99101.87;4441476;32;20489;-68
2021/10/21 05:38:30;;;;;;;1.75;0.30;;;;;;;13.83;47.37;99113.41;4444809;32;20191;-68
2021/10/21 05:40:56;;;;;;;1.98;0.40;;;;;;;13.77;47.46;99117.44;4443225;32;20133;-68
2021/10/21 05:43:22;;;;;;;2.72;0.45;;;;;;;13.67;47.46;99136.66;4443897;32;20143;-68
2021/10/21 05:45:48;;;;;;;4.25;0.73;;;;;;;13.86;47.20;99137.88;4443474;32;20025;-68
2021/10/21 05:48:16;;;;;;;6.25;0.60;;;;;;;13.19;48.08;99151.75;4443702;32;20073;-68
2021/10/21 05:50:43;;;;;;;2.72;0.60;;;;;;;13.33;47.60;99165.81;4446980;32;20677;-68
2021/10/21 05:53:08;;;;;;;2.15;0.50;;;;;;;13.02;47.90;99167.69;4442878;32;20042;-68
2021/10/21 05:55:34;;;;;;;7.62;0.70;;;;;;;12.90;47.88;99180.84;4442225;32;20048;-68
2021/10/21 05:58:00;;;;;;;1.02;0.20;;;;;;;12.83;47.68;99197.44;4440162;32;20379;-68
2021/10/21 06:00:27;;;;;;;4.47;0.40;;;;;;;12.96;47.52;99204.31;4441077;32;20120;-68
2021/10/21 06:02:53;;;;;;;3.00;0.37;;;;;;;12.75;47.23;99204.72;4441540;32;20084;-68
2021/10/21 06:05:22;;;;;;;2.17;0.30;;;;;;;12.44;47.27;99222.22;4443713;32;20450;-68
2021/10/21 06:07:49;;;;;;;1.67;0.30;;;;;;;12.36;47.68;99232.31;4440774;32;20073;-67
2021/10/21 06:10:16;;;;;;;4.12;0.20;;;;;;;12.23;47.40;99239.53;4443245;32;20104;-67
2021/10/21 06:12:48;;;;;;;1.02;0.10;;;;;;;12.46;46.78;99244.28;4443463;32;20108;-67
2021/10/21 06:15:14;;;;;;;1.25;0.20;;;;;;;12.03;46.90;99262.75;4439842;32;20112;-67
2021/10/21 06:17:42;;;;;;;4.82;0.50;;;;;;;12.24;46.91;99269.28;4443290;32;20029;-67
2021/10/21 06:20:13;;;;;;;0.95;0.20;;;;;;;11.96;47.44;99282.84;4440556;32;20064;-67
2021/10/21 06:22:40;;;;;;;3.08;0.20;;;;;;;12.07;46.93;99288.72;4442933;32;20497;-67
2021/10/21 06:25:07;;;;;;;2.62;0.57;;;;;;;11.96;46.82;99294.13;4442658;32;20115;-67
2021/10/21 06:27:34;;;;;;;6.53;0.55;;;;;;;12.06;46.69;99301.28;4440918;32;20073;-67
2021/10/21 06:30:00;;;;;;;5.97;0.50;;;;;;;11.96;46.40;99322.31;4442557;32;20069;-67
2021/10/21 06:32:25;;;;;;;2.05;0.20;;;;;;;12.07;46.36;99312.06;4442557;32;20152;-67
2021/10/21 06:34:51;;;;;;;5.78;0.30;;;;;;;11.86;46.27;99323.66;4442796;32;20461;-67
2021/10/21 06:37:19;;;;;;;2.05;0.40;;;;;;;12.03;45.60;99319.16;4441987;32;20051;-67
2021/10/21 06:39:51;;;;;;;5.45;0.35;;;;;;;11.72;46.14;99342.06;4437380;32;20545;-67
2021/10/21 06:42:17;;;;;;;3.87;0.30;;;;;;;11.95;45.94;99344.13;4435639;32;20065;-67
2021/10/21 06:44:44;;;;;;;3.92;0.52;;;;;;;11.43;46.56;99344.75;4436559;32;20134;-67
2021/10/21 06:47:10;;;;;;;2.75;0.43;;;;;;;11.65;46.84;99358.56;4438138;32;20460;-67
2021/10/21 06:49:35;;;;;;;3.65;0.50;;;;;;;11.98;45.81;99364.91;4436097;32;20095;-67
2021/10/21 06:52:01;;;;;;;7.57;0.40;;;;;;;11.53;46.11;99362.34;4434986;32;20104;-67
2021/10/21 06:54:27;;;;;;;7.80;0.70;;;;;;;11.67;46.25;99378.59;4435573;32;20122;-67
2021/10/21 06:56:53;;;;;;;6.72;0.60;;;;;;;12.01;45.70;99390.13;4436873;32;20468;-67
2021/10/21 06:59:19;;;;;;;4.55;0.68;;;;;;;11.88;45.73;99392.38;4431549;32;20516;-68
2021/10/21 07:01:45;;;;;;;3.58;0.40;;;;;;;11.78;45.40;99398.53;4436123;32;20088;-68
2021/10/21 07:04:11;;;;;;;4.12;0.50;;;;;;;11.76;45.46;99421.56;4433571;32;20164;-68
2021/10/21 07:06:37;;;;;;;3.80;1.27;;;;;;;12.21;45.13;99437.41;4429484;32;20102;-68
2021/10/21 07:09:03;;;;;;;5.65;0.70;;;;;;;11.88;45.40;99440.28;4428718;32;20037;-69
2021/10/21 07:11:30;;;;;;;6.30;0.70;;;;;;;11.89;44.91;99443.91;4428517;32;20571;-68
2021/10/21 07:13:55;;;;;;;12.60;0.55;;;;;;;12.26;44.77;99462.16;4428966;32;20085;-68
2021/10/21 07:16:21;;;;;;;4.37;0.50;;;;;;;11.94;44.53;99477.84;4429329;32;20207;-68
2021/10/21 07:18:47;;;;;;;5.12;0.47;;;;;;;12.44;44.28;99480.97;4427612;32;20188;-68
2021/10/21 07:21:17;;;;;;;4.70;1.12;;;;;;;12.66;44.17;99493.50;4427476;32;20725;-68
2021/10/21 07:23:44;;;;;;;5.82;0.50;;;;;;;12.94;44.35;99505.34;4419380;32;20204;-68
2021/10/21 07:26:10;;;;;;;5.90;0.62;;;;;;;12.90;43.75;99505.53;4430716;32;20084;-69
2021/10/21 07:28:36;;;;;;;3.72;0.60;;;;;;;12.89;43.28;99520.16;4428957;32;20097;-69
2021/10/21 07:31:02;;;;;;;3.95;0.47;;;;;;;12.94;43.13;99536.41;4432160;32;20340;-68
2021/10/21 07:33:28;;;;;;;3.37;0.50;;;;;;;12.50;43.17;99532.66;4433126;32;20095;-68
2021/10/21 07:35:55;;;;;;;3.78;0.43;;;;;;;12.60;43.22;99546.25;4430945;32;20155;-68
2021/10/21 07:38:21;;;;;;;3.08;0.50;;;;;;;12.92;43.46;99564.34;4434136;32;20041;-68
2021/10/21 07:40:46;;;;;;;3.65;0.50;;;;;;;13.08;42.33;99573.19;4435259;32;20370;-68
2021/10/21 07:43:13;;;;;;;6.43;0.40;;;;;;;13.25;42.43;99574.28;4435278;32;20041;-68
2021/10/21 07:45:40;;;;;;;1.08;0.37;;;;;;;13.33;42.12;99586.00;4432457;32;20080;-68
2021/10/21 07:48:07;;;;;;;3.12;0.52;;;;;;;13.04;42.50;99598.00;4435442;32;20089;-68
2021/10/21 07:50:34;;;;;;;2.85;0.30;;;;;;;12.70;42.66;99604.19;4434915;32;20507;-69
2021/10/21 07:53:02;;;;;;;3.53;0.57;;;;;;;12.80;43.43;99613.37;4433914;32;20148;-69
2021/10/21 07:55:30;;;;;;;3.20;0.60;;;;;;;13.37;43.60;99617.66;4433086;32;20108;-69
2021/10/21 07:57:57;;;;;;;3.25;0.50;;;;;;;13.18;42.39;99628.34;4434012;32;20133;-69
2021/10/21 08:00:24;;;;;;;3.90;0.50;;;;;;;13.88;42.14;99627.37;4432814;32;20074;-68
2021/10/21 08:02:50;;;;;;;1.25;0.30;;;;;;;14.22;41.21;99633.56;4430836;32;20053;-69
2021/10/21 08:05:16;;;;;;;2.50;0.50;;;;;;;14.22;40.33;99647.72;4430425;32;20137;-68
2021/10/21 08:07:44;;;;;;;2.80;0.50;;;;;;;14.47;40.95;99661.25;4434254;32;20095;-69
2021/10/21 08:10:13;;;;;;;4.07;1.45;;;;;;;14.73;40.01;99662.19;4434446;32;20108;-69
2021/10/21 08:12:39;;;;;;;2.58;0.45;;;;;;;15.25;40.19;99672.44;4431164;32;20077;-69
2021/10/21 08:15:07;;;;;;;4.12;0.60;;;;;;;15.10;38.89;99680.22;4433823;32;20603;-69
2021/10/21 08:17:33;;;;;;;3.70;0.95;;;;;;;15.69;39.01;99684.34;4427964;32;20475;-69
2021/10/21 08:19:59;;;;;;;3.28;0.52;;;;;;;15.87;38.97;99684.78;4431888;32;20069;-69
2021/10/21 08:22:26;;;;;;;4.82;0.60;;;;;;;15.94;37.89;99694.91;4432690;32;20034;-69
2021/10/21 08:24:52;;;;;;;6.85;1.73;;;;;;;16.46;37.46;99699.31;4431128;32;20056;-69
2021/10/21 08:27:18;;;;;;;3.42;0.32;;;;;;;15.89;37.00;99704.94;4433388;32;20132;-69
2021/10/21 08:29:44;;;;;;;6.18;0.47;;;;;;;15.55;37.33;99733.41;4432399;32;20060;-69
2021/10/21 08:32:12;;;;;;;3.30;0.60;;;;;;;15.62;37.03;99727.31;4433512;32;20158;-69
2021/10/21 08:34:39;;;;;;;5.65;0.60;;;;;;;15.14;37.63;99743.13;4432926;32;20037;-69
2021/10/21 08:37:05;;;;;;;6.20;0.77;;;;;;;15.25;38.13;99738.38;4434790;32;20116;-69
2021/10/21 08:39:31;;;;;;;4.15;0.90;;;;;;;15.49;37.44;99750.34;4432742;32;20080;-69
2021/10/21 08:41:56;;;;;;;4.25;0.88;;;;;;;15.61;37.60;99762.59;4433229;32;20034;-69
2021/10/21 08:44:22;;;;;;;6.10;0.85;;;;;;;16.08;36.73;99770.66;4435981;32;20346;-69
2021/10/21 08:46:53;;;;;;;4.25;0.98;;;;;;;16.04;36.49;99770.09;4431099;32;20309;-69
2021/10/21 08:49:20;;;;;;;6.25;0.98;;;;;;;16.87;36.96;99793.63;4433028;32;20046;-71
2021/10/21 08:51:46;;;;;;;8.13;1.10;;;;;;;16.81;35.48;99793.59;4432547;32;20118;-69
2021/10/21 08:54:12;;;;;;;6.55;0.80;;;;;;;16.78;35.31;99803.13;4432874;32;20053;-71
2021/10/21 08:56:38;;;;;;;3.35;0.82;;;;;;;16.96;35.70;99819.03;4433569;32;20042;-71
2021/10/21 08:59:05;;;;;;;4.90;1.35;;;;;;;16.63;34.90;99813.81;4433460;32;20454;-70
2021/10/21 09:01:48;;;;;;;4.10;0.70;;;;;;;17.34;35.49;99821.38;4429903;32;20124;-70
2021/10/21 09:09:29;;;;;;;3.67;1.08;;;;;;;17.94;33.17;99860.81;3977076;32;15025978;-70
2021/10/21 09:12:17;;;;;;;8.13;1.35;;;;;;;17.94;33.17;99860.81;4429305;32;20106;-70
2021/10/21 09:14:47;;;;;;;4.87;1.20;;;;;;;18.28;31.98;99870.28;4422105;32;20506;-70
2021/10/21 09:17:18;;;;;;;7.22;1.33;;;;;;;17.93;32.40;99870.66;4427680;32;20528;-70
2021/10/21 09:19:46;;;;;;;9.02;1.48;;;;;;;18.03;33.16;99880.53;4430168;32;20511;-70
2021/10/21 09:22:21;;;;;;;8.00;1.40;;;;;;;18.46;32.50;99886.94;4424830;32;20081;-70
2021/10/21 09:24:49;;;;;;;7.15;1.73;;;;;;;18.65;31.81;99885.97;4424314;32;20455;-70
2021/10/21 09:27:17;;;;;;;9.18;1.08;;;;;;;19.03;31.58;99901.59;4435110;32;20169;-70
2021/10/21 09:29:47;;;;;;;14.95;1.70;;;;;;;19.33;30.26;99914.84;4424974;32;20530;-70
2021/10/21 09:35:02;;;;;;;10.45;1.50;;;;;;;19.37;30.74;99926.00;3982347;32;15023653;-70
2021/10/21 09:37:31;;;;;;;6.03;1.30;;;;;;;19.74;29.58;99953.00;4433807;32;20044;-70
2021/10/21 09:40:02;;;;;;;8.75;1.30;;;;;;;19.64;29.87;99951.69;4432725;32;20592;-70
2021/10/21 09:42:30;;;;;;;7.53;1.60;;;;;;;19.90;29.07;99953.47;4433651;32;20105;-70
2021/10/21 09:45:17;;;;;;;10.15;1.40;;;;;;;20.06;29.78;99962.00;4431312;32;20613;-70
2021/10/21 09:47:45;;;;;;;4.57;1.30;;;;;;;20.25;27.91;99977.31;4432855;32;20103;-69
2021/10/21 09:50:34;;;;;;;7.45;1.50;;;;;;;20.27;27.76;99976.78;4434694;32;20148;-70
2021/10/21 09:55:40;;;;;;;9.48;1.70;;;;;;;20.78;28.33;99998.97;3993333;31;15017230;-69
2021/10/21 09:58:08;;;;;;;6.82;1.05;;;;;;;20.78;28.33;99998.97;4445778;32;20388;-70
2021/10/21 10:00:36;;;;;;;9.15;1.33;;;;;;;20.31;29.13;99995.22;4445622;32;20040;-69
2021/10/21 10:03:29;;;;;;;11.18;1.77;;;;;;;20.25;29.57;100008.75;4445413;32;20438;-69
2021/10/21 10:05:55;;;;;;;8.30;1.12;;;;;;;21.29;27.80;100010.41;4443622;32;20042;-69
2021/10/21 10:08:24;;;;;;;11.82;1.87;;;;;;;20.36;27.73;100019.38;4444333;32;20080;-69
2021/10/21 10:10:53;;;;;;;9.45;1.70;;;;;;;21.51;26.61;100027.44;4443892;32;20508;-70
2021/10/21 10:13:20;;;;;;;8.40;1.10;;;;;;;20.82;26.43;100040.28;4446089;32;20627;-71
2021/10/21 10:15:48;;;;;;;9.40;1.45;;;;;;;20.61;27.53;100049.69;4445816;32;20211;-70
2021/10/21 10:18:18;;;;;;;10.00;1.27;;;;;;;20.53;27.72;100049.50;4442483;32;20126;-70
2021/10/21 10:20:51;;;;;;;8.75;1.42;;;;;;;21.42;27.66;100059.25;4444069;32;20137;-70
2021/10/21 10:23:19;;;;;;;10.70;1.80;;;;;;;21.78;26.85;100074.37;4445488;32;20148;-71
2021/10/21 10:25:47;;;;;;;11.20;1.83;;;;;;;22.07;25.52;100082.25;4445860;32;20576;-71
2021/10/21 10:28:14;;;;;;;7.05;1.67;;;;;;;22.76;24.95;100083.41;4442163;32;20103;-70
2021/10/21 10:30:57;;;;;;;4.70;1.42;;;;;;;22.84;24.62;100095.84;4443765;32;20071;-70
2021/10/21 10:33:40;;;;;;;8.25;1.80;;;;;;;22.87;23.84;100094.75;4444724;32;20080;-69
2021/10/21 10:39:06;;;;;;;8.02;1.92;;;;;;;23.72;22.48;100116.91;3947556;32;15725303;-70
2021/10/21 10:41:53;;;;;;;10.80;2.05;;;;;;;23.72;22.48;100116.91;4422533;32;20037;-71
2021/10/21 10:47:11;;;;;;;8.30;1.58;;;;;;;23.47;23.42;100121.16;3976832;32;15028628;-72
2021/10/21 10:52:17;;;;;;;13.52;2.20;;;;;;;23.19;23.22;100132.19;3948178;32;15723501;-72
2021/10/21 11:00:45;;;;;;;10.82;1.65;;;;;;;23.78;23.80;100154.97;4004759;31;15023697;-72
2021/10/21 11:03:12;;;;;;;11.05;1.75;;;;;;;23.78;23.80;100154.97;4460182;32;20459;-72
2021/10/21 11:09:08;;;;;;;5.80;1.40;;;;;;;24.13;22.98;100174.06;3975940;32;15021808;-72
2021/10/21 11:11:40;;;;;;;5.75;1.52;;;;;;;24.13;22.98;100174.06;4426735;32;20080;-72
2021/10/21 11:14:13;;;;;;;6.00;1.30;;;;;;;23.48;22.51;100185.91;4429422;32;20112;-71
2021/10/21 11:16:43;;;;;;;12.48;2.15;;;;;;;23.28;22.80;100192.94;4428362;32;20072;-71
2021/10/21 11:19:11;;;;;;;9.82;1.75;;;;;;;23.44;23.64;100191.19;4427704;32;20138;-71
2021/10/21 11:21:54;;;;;;;6.20;1.67;;;;;;;23.37;23.67;100195.44;4426895;32;20049;-72
2021/10/21 11:27:24;;;;;;;14.75;1.70;;;;;;;24.09;23.07;100222.47;3977297;32;15024022;-72
2021/10/21 11:29:52;;;;;;;7.30;1.90;;;;;;;24.09;23.07;100222.47;4429671;32;20073;-72
2021/10/21 11:32:18;;;;;;;5.70;1.70;;;;;;;23.45;22.35;100219.38;4429903;32;20029;-72
2021/10/21 11:34:51;;;;;;;7.05;1.35;;;;;;;23.44;23.19;100214.94;4431556;32;20833;-72
2021/10/21 11:37:39;;;;;;;8.80;1.40;;;;;;;23.86;22.78;100221.97;4430736;32;20193;-72
2021/10/21 11:40:07;;;;;;;8.07;2.10;;;;;;;24.41;21.93;100226.16;4430587;32;20077;-73
2021/10/21 11:42:33;;;;;;;9.82;1.50;;;;;;;23.65;22.39;100234.53;4431013;32;20356;-72
2021/10/21 11:45:06;;;;;;;7.22;1.27;;;;;;;24.15;21.77;100228.91;4430850;32;20041;-72
2021/10/21 11:47:34;;;;;;;7.47;1.20;;;;;;;23.47;22.37;100233.16;4431091;32;20065;-72
2021/10/21 11:50:00;;;;;;;6.87;1.15;;;;;;;23.72;22.57;100239.66;4418531;32;20699;-72
2021/10/21 11:52:44;;;;;;;9.07;1.27;;;;;;;23.47;22.03;100247.53;4428253;32;20152;-72
2021/10/21 11:55:27;;;;;;;6.12;1.37;;;;;;;23.62;22.78;100250.75;4427001;32;20131;-72
2021/10/21 11:57:55;;;;;;;6.37;1.45;;;;;;;24.71;20.71;100250.56;4431219;32;20085;-72
2021/10/21 12:00:23;;;;;;;9.05;1.25;;;;;;;23.96;21.22;100272.03;4417981;32;20520;-72
2021/10/21 12:02:52;;;;;;;7.32;1.62;;;;;;;24.28;21.05;100261.41;4428815;32;20588;-72
2021/10/21 12:05:24;;;;;;;8.93;1.77;;;;;;;25.18;19.13;100268.03;4425020;32;20105;-73